sensor_id;sensor_type;location;lat;lon;timestamp;P1;durP1;ratioP1;P2;durP2;ratioP2
6117;SDS011;3089;48.202;11.510;2023-05-06T00:02:15;6.73;;;1.90;;
6117;SDS011;3089;48.202;11.510;2023-05-06T00:04:43;3.97;;;1.90;;
6117;SDS011;3089;48.202;11.510;2023-05-06T00:07:11;7.30;;;1.77;;
6117;SDS011;3089;48.202;11.510;2023-05-06T00:09:39;2.97;;;1.53;;
6117;SDS011;3089;48.202;11.510;2023-05-06T00:12:07;4.00;;;1.50;;
6117;SDS011;3089;48.202;11.510;2023-05-06T00:14:36;3.83;;;1.80;;
6117;SDS011;3089;48.202;11.510;2023-05-06T00:17:04;5.47;;;1.87;;
6117;SDS011;3089;48.202;11.510;2023-05-06T00:19:32;4.67;;;2.00;;
6117;SDS011;3089;48.202;11.510;2023-05-06T00:21:59;3.57;;;1.40;;
6117;SDS011;3089;48.202;11.510;2023-05-06T00:24:27;6.27;;;1.93;;
6117;SDS011;3089;48.202;11.510;2023-05-06T00:26:55;3.33;;;1.67;;
6117;SDS011;3089;48.202;11.510;2023-05-06T00:29:23;4.13;;;1.60;;
6117;SDS011;3089;48.202;11.510;2023-05-06T00:31:52;3.00;;;1.30;;
6117;SDS011;3089;48.202;11.510;2023-05-06T00:34:20;4.60;;;2.07;;
6117;SDS011;3089;48.202;11.510;2023-05-06T00:36:48;6.73;;;2.13;;
6117;SDS011;3089;48.202;11.510;2023-05-06T00:39:16;4.00;;;1.70;;
6117;SDS011;3089;48.202;11.510;2023-05-06T00:41:44;4.20;;;1.87;;
6117;SDS011;3089;48.202;11.510;2023-05-06T00:44:11;3.73;;;1.80;;
6117;SDS011;3089;48.202;11.510;2023-05-06T00:46:39;10.80;;;1.97;;
6117;SDS011;3089;48.202;11.510;2023-05-06T00:49:10;4.17;;;1.70;;
6117;SDS011;3089;48.202;11.510;2023-05-06T00:51:38;3.67;;;1.80;;
6117;SDS011;3089;48.202;11.510;2023-05-06T00:54:06;4.70;;;1.63;;
6117;SDS011;3089;48.202;11.510;2023-05-06T00:56:34;3.70;;;1.80;;
6117;SDS011;3089;48.202;11.510;2023-05-06T00:59:03;5.40;;;1.90;;
6117;SDS011;3089;48.202;11.510;2023-05-06T01:01:31;4.90;;;2.00;;
6117;SDS011;3089;48.202;11.510;2023-05-06T01:03:59;3.40;;;1.70;;
6117;SDS011;3089;48.202;11.510;2023-05-06T01:06:31;7.13;;;1.57;;
6117;SDS011;3089;48.202;11.510;2023-05-06T01:09:11;4.47;;;2.33;;
6117;SDS011;3089;48.202;11.510;2023-05-06T01:11:48;4.40;;;1.57;;
6117;SDS011;3089;48.202;11.510;2023-05-06T01:14:20;3.90;;;1.60;;
6117;SDS011;3089;48.202;11.510;2023-05-06T01:16:57;5.47;;;1.70;;
6117;SDS011;3089;48.202;11.510;2023-05-06T01:19:34;4.33;;;1.70;;
6117;SDS011;3089;48.202;11.510;2023-05-06T01:22:08;4.17;;;2.17;;
6117;SDS011;3089;48.202;11.510;2023-05-06T01:24:39;3.63;;;1.70;;
6117;SDS011;3089;48.202;11.510;2023-05-06T01:27:08;3.50;;;1.33;;
6117;SDS011;3089;48.202;11.510;2023-05-06T01:29:37;3.70;;;1.60;;
6117;SDS011;3089;48.202;11.510;2023-05-06T01:32:15;3.97;;;1.80;;
6117;SDS011;3089;48.202;11.510;2023-05-06T01:34:54;5.00;;;2.10;;
6117;SDS011;3089;48.202;11.510;2023-05-06T01:37:27;8.17;;;1.87;;
6117;SDS011;3089;48.202;11.510;2023-05-06T01:40:02;7.27;;;2.30;;
6117;SDS011;3089;48.202;11.510;2023-05-06T01:42:32;3.73;;;1.73;;
6117;SDS011;3089;48.202;11.510;2023-05-06T01:45:01;3.73;;;1.63;;
6117;SDS011;3089;48.202;11.510;2023-05-06T01:47:34;4.60;;;2.20;;
6117;SDS011;3089;48.202;11.510;2023-05-06T01:50:03;4.63;;;1.80;;
6117;SDS011;3089;48.202;11.510;2023-05-06T01:52:31;4.10;;;1.87;;
6117;SDS011;3089;48.202;11.510;2023-05-06T01:54:59;3.73;;;1.40;;
6117;SDS011;3089;48.202;11.510;2023-05-06T01:57:28;6.60;;;2.30;;
6117;SDS011;3089;48.202;11.510;2023-05-06T01:59:56;6.10;;;2.03;;
6117;SDS011;3089;48.202;11.510;2023-05-06T02:02:24;4.33;;;1.70;;
6117;SDS011;3089;48.202;11.510;2023-05-06T02:04:52;3.60;;;1.80;;
6117;SDS011;3089;48.202;11.510;2023-05-06T02:07:20;3.40;;;1.80;;
6117;SDS011;3089;48.202;11.510;2023-05-06T02:09:47;4.60;;;2.10;;
6117;SDS011;3089;48.202;11.510;2023-05-06T02:12:15;6.50;;;2.07;;
6117;SDS011;3089;48.202;11.510;2023-05-06T02:14:44;5.23;;;1.90;;
6117;SDS011;3089;48.202;11.510;2023-05-06T02:17:12;4.60;;;2.20;;
6117;SDS011;3089;48.202;11.510;2023-05-06T02:19:40;6.63;;;2.33;;
6117;SDS011;3089;48.202;11.510;2023-05-06T02:22:08;6.03;;;2.37;;
6117;SDS011;3089;48.202;11.510;2023-05-06T02:24:36;5.40;;;2.20;;
6117;SDS011;3089;48.202;11.510;2023-05-06T02:27:04;4.40;;;1.87;;
6117;SDS011;3089;48.202;11.510;2023-05-06T02:29:32;4.43;;;2.07;;
6117;SDS011;3089;48.202;11.510;2023-05-06T02:32:01;6.50;;;1.93;;
6117;SDS011;3089;48.202;11.510;2023-05-06T02:34:29;4.50;;;2.00;;
6117;SDS011;3089;48.202;11.510;2023-05-06T02:36:57;4.60;;;2.10;;
6117;SDS011;3089;48.202;11.510;2023-05-06T02:39:24;4.90;;;2.40;;
6117;SDS011;3089;48.202;11.510;2023-05-06T02:41:52;7.53;;;2.90;;
6117;SDS011;3089;48.202;11.510;2023-05-06T02:44:20;3.77;;;1.97;;
6117;SDS011;3089;48.202;11.510;2023-05-06T02:46:48;4.80;;;2.10;;
6117;SDS011;3089;48.202;11.510;2023-05-06T02:49:17;4.63;;;2.40;;
6117;SDS011;3089;48.202;11.510;2023-05-06T02:51:45;3.97;;;2.03;;
6117;SDS011;3089;48.202;11.510;2023-05-06T02:54:15;5.47;;;2.60;;
6117;SDS011;3089;48.202;11.510;2023-05-06T02:56:43;4.83;;;2.30;;
6117;SDS011;3089;48.202;11.510;2023-05-06T02:59:12;4.50;;;2.30;;
6117;SDS011;3089;48.202;11.510;2023-05-06T03:01:39;13.53;;;3.20;;
6117;SDS011;3089;48.202;11.510;2023-05-06T03:04:07;7.00;;;3.77;;
6117;SDS011;3089;48.202;11.510;2023-05-06T03:06:37;4.77;;;1.97;;
6117;SDS011;3089;48.202;11.510;2023-05-06T03:09:04;4.50;;;1.90;;
6117;SDS011;3089;48.202;11.510;2023-05-06T03:11:33;6.03;;;1.80;;
6117;SDS011;3089;48.202;11.510;2023-05-06T03:14:01;4.50;;;2.17;;
6117;SDS011;3089;48.202;11.510;2023-05-06T03:16:29;3.77;;;1.60;;
6117;SDS011;3089;48.202;11.510;2023-05-06T03:18:57;5.87;;;2.30;;
6117;SDS011;3089;48.202;11.510;2023-05-06T03:21:25;5.20;;;2.20;;
6117;SDS011;3089;48.202;11.510;2023-05-06T03:23:54;4.00;;;2.00;;
6117;SDS011;3089;48.202;11.510;2023-05-06T03:26:22;4.27;;;2.27;;
6117;SDS011;3089;48.202;11.510;2023-05-06T03:28:50;4.40;;;2.00;;
6117;SDS011;3089;48.202;11.510;2023-05-06T03:31:17;5.77;;;2.40;;
6117;SDS011;3089;48.202;11.510;2023-05-06T03:33:45;5.30;;;1.93;;
6117;SDS011;3089;48.202;11.510;2023-05-06T03:36:13;6.13;;;2.33;;
6117;SDS011;3089;48.202;11.510;2023-05-06T03:38:41;5.80;;;2.17;;
6117;SDS011;3089;48.202;11.510;2023-05-06T03:41:10;5.83;;;2.23;;
6117;SDS011;3089;48.202;11.510;2023-05-06T03:43:38;5.00;;;1.70;;
6117;SDS011;3089;48.202;11.510;2023-05-06T03:46:06;7.27;;;2.10;;
6117;SDS011;3089;48.202;11.510;2023-05-06T03:48:34;4.20;;;2.30;;
6117;SDS011;3089;48.202;11.510;2023-05-06T03:51:01;4.20;;;1.93;;
6117;SDS011;3089;48.202;11.510;2023-05-06T03:53:29;3.93;;;1.90;;
6117;SDS011;3089;48.202;11.510;2023-05-06T03:55:57;5.70;;;2.07;;
6117;SDS011;3089;48.202;11.510;2023-05-06T03:58:28;4.57;;;2.27;;
6117;SDS011;3089;48.202;11.510;2023-05-06T04:00:55;4.87;;;2.87;;
6117;SDS011;3089;48.202;11.510;2023-05-06T04:03:26;6.40;;;2.50;;
6117;SDS011;3089;48.202;11.510;2023-05-06T04:05:54;4.40;;;2.23;;
6117;SDS011;3089;48.202;11.510;2023-05-06T04:08:22;4.97;;;2.60;;
6117;SDS011;3089;48.202;11.510;2023-05-06T04:10:50;4.60;;;2.33;;
6117;SDS011;3089;48.202;11.510;2023-05-06T04:13:18;4.40;;;2.17;;
6117;SDS011;3089;48.202;11.510;2023-05-06T04:15:48;5.57;;;2.40;;
6117;SDS011;3089;48.202;11.510;2023-05-06T04:18:16;4.30;;;2.43;;
6117;SDS011;3089;48.202;11.510;2023-05-06T04:20:45;5.20;;;2.60;;
6117;SDS011;3089;48.202;11.510;2023-05-06T04:23:14;4.13;;;2.37;;
6117;SDS011;3089;48.202;11.510;2023-05-06T04:25:42;6.83;;;2.43;;
6117;SDS011;3089;48.202;11.510;2023-05-06T04:28:14;5.43;;;2.60;;
6117;SDS011;3089;48.202;11.510;2023-05-06T04:30:42;4.60;;;2.40;;
6117;SDS011;3089;48.202;11.510;2023-05-06T04:33:12;6.07;;;2.40;;
6117;SDS011;3089;48.202;11.510;2023-05-06T04:35:46;7.00;;;2.43;;
6117;SDS011;3089;48.202;11.510;2023-05-06T04:38:18;4.20;;;2.27;;
6117;SDS011;3089;48.202;11.510;2023-05-06T04:40:46;3.97;;;1.93;;
6117;SDS011;3089;48.202;11.510;2023-05-06T04:43:14;5.87;;;2.30;;
6117;SDS011;3089;48.202;11.510;2023-05-06T04:45:42;4.23;;;2.17;;
6117;SDS011;3089;48.202;11.510;2023-05-06T04:48:16;6.00;;;2.40;;
6117;SDS011;3089;48.202;11.510;2023-05-06T04:50:44;5.23;;;2.20;;
6117;SDS011;3089;48.202;11.510;2023-05-06T04:53:12;5.87;;;1.77;;
6117;SDS011;3089;48.202;11.510;2023-05-06T04:55:41;5.87;;;2.30;;
6117;SDS011;3089;48.202;11.510;2023-05-06T04:58:09;6.60;;;2.30;;
6117;SDS011;3089;48.202;11.510;2023-05-06T05:00:36;4.17;;;2.30;;
6117;SDS011;3089;48.202;11.510;2023-05-06T05:03:04;5.93;;;3.90;;
6117;SDS011;3089;48.202;11.510;2023-05-06T05:05:34;7.10;;;3.47;;
6117;SDS011;3089;48.202;11.510;2023-05-06T05:08:01;5.40;;;2.80;;
6117;SDS011;3089;48.202;11.510;2023-05-06T05:10:29;5.93;;;2.37;;
6117;SDS011;3089;48.202;11.510;2023-05-06T05:12:57;4.87;;;2.47;;
6117;SDS011;3089;48.202;11.510;2023-05-06T05:15:25;4.17;;;2.40;;
6117;SDS011;3089;48.202;11.510;2023-05-06T05:17:53;7.03;;;2.63;;
6117;SDS011;3089;48.202;11.510;2023-05-06T05:20:21;13.27;;;2.60;;
6117;SDS011;3089;48.202;11.510;2023-05-06T05:22:50;5.40;;;2.63;;
6117;SDS011;3089;48.202;11.510;2023-05-06T05:25:18;6.20;;;2.23;;
6117;SDS011;3089;48.202;11.510;2023-05-06T05:27:46;5.10;;;2.60;;
6117;SDS011;3089;48.202;11.510;2023-05-06T05:30:14;5.47;;;2.40;;
6117;SDS011;3089;48.202;11.510;2023-05-06T05:32:42;8.53;;;2.83;;
6117;SDS011;3089;48.202;11.510;2023-05-06T05:35:10;6.10;;;2.73;;
6117;SDS011;3089;48.202;11.510;2023-05-06T05:37:38;6.83;;;3.23;;
6117;SDS011;3089;48.202;11.510;2023-05-06T05:40:07;5.77;;;2.70;;
6117;SDS011;3089;48.202;11.510;2023-05-06T05:42:36;4.67;;;2.80;;
6117;SDS011;3089;48.202;11.510;2023-05-06T05:45:04;4.67;;;2.60;;
6117;SDS011;3089;48.202;11.510;2023-05-06T05:47:33;5.43;;;2.63;;
6117;SDS011;3089;48.202;11.510;2023-05-06T05:50:01;5.60;;;3.10;;
6117;SDS011;3089;48.202;11.510;2023-05-06T05:52:29;5.40;;;3.13;;
6117;SDS011;3089;48.202;11.510;2023-05-06T05:54:57;7.60;;;2.67;;
6117;SDS011;3089;48.202;11.510;2023-05-06T05:57:26;5.43;;;2.70;;
6117;SDS011;3089;48.202;11.510;2023-05-06T05:59:54;4.67;;;2.67;;
6117;SDS011;3089;48.202;11.510;2023-05-06T06:02:21;4.57;;;2.83;;
6117;SDS011;3089;48.202;11.510;2023-05-06T06:04:49;5.97;;;2.53;;
6117;SDS011;3089;48.202;11.510;2023-05-06T06:07:17;7.73;;;2.70;;
6117;SDS011;3089;48.202;11.510;2023-05-06T06:09:45;4.27;;;2.63;;
6117;SDS011;3089;48.202;11.510;2023-05-06T06:12:14;6.27;;;2.80;;
6117;SDS011;3089;48.202;11.510;2023-05-06T06:14:44;6.50;;;2.90;;
6117;SDS011;3089;48.202;11.510;2023-05-06T06:17:13;8.17;;;3.20;;
6117;SDS011;3089;48.202;11.510;2023-05-06T06:19:41;5.87;;;3.30;;
6117;SDS011;3089;48.202;11.510;2023-05-06T06:22:11;9.00;;;3.20;;
6117;SDS011;3089;48.202;11.510;2023-05-06T06:24:39;8.20;;;3.70;;
6117;SDS011;3089;48.202;11.510;2023-05-06T06:27:06;7.73;;;3.40;;
6117;SDS011;3089;48.202;11.510;2023-05-06T06:29:34;6.07;;;3.73;;
6117;SDS011;3089;48.202;11.510;2023-05-06T06:32:04;6.83;;;3.73;;
6117;SDS011;3089;48.202;11.510;2023-05-06T06:34:32;7.20;;;4.23;;
6117;SDS011;3089;48.202;11.510;2023-05-06T06:37:00;7.33;;;4.27;;
6117;SDS011;3089;48.202;11.510;2023-05-06T06:39:28;6.10;;;3.50;;
6117;SDS011;3089;48.202;11.510;2023-05-06T06:41:55;6.97;;;4.10;;
6117;SDS011;3089;48.202;11.510;2023-05-06T06:44:24;7.43;;;4.13;;
6117;SDS011;3089;48.202;11.510;2023-05-06T06:46:52;9.20;;;4.40;;
6117;SDS011;3089;48.202;11.510;2023-05-06T06:49:21;8.23;;;4.10;;
6117;SDS011;3089;48.202;11.510;2023-05-06T06:51:49;7.23;;;4.50;;
6117;SDS011;3089;48.202;11.510;2023-05-06T06:54:17;8.03;;;4.43;;
6117;SDS011;3089;48.202;11.510;2023-05-06T06:56:45;9.70;;;4.60;;
6117;SDS011;3089;48.202;11.510;2023-05-06T06:59:13;8.30;;;5.03;;
6117;SDS011;3089;48.202;11.510;2023-05-06T07:01:41;7.60;;;4.30;;
6117;SDS011;3089;48.202;11.510;2023-05-06T07:04:09;7.83;;;4.90;;
6117;SDS011;3089;48.202;11.510;2023-05-06T07:06:38;7.30;;;4.90;;
6117;SDS011;3089;48.202;11.510;2023-05-06T07:09:06;8.13;;;5.00;;
6117;SDS011;3089;48.202;11.510;2023-05-06T07:11:34;10.23;;;5.07;;
6117;SDS011;3089;48.202;11.510;2023-05-06T07:14:02;8.33;;;4.63;;
6117;SDS011;3089;48.202;11.510;2023-05-06T07:16:30;9.93;;;5.40;;
6117;SDS011;3089;48.202;11.510;2023-05-06T07:18:57;7.10;;;5.20;;
6117;SDS011;3089;48.202;11.510;2023-05-06T07:21:26;10.50;;;5.23;;
6117;SDS011;3089;48.202;11.510;2023-05-06T07:23:55;9.93;;;5.50;;
6117;SDS011;3089;48.202;11.510;2023-05-06T07:26:23;10.10;;;5.60;;
6117;SDS011;3089;48.202;11.510;2023-05-06T07:28:51;10.00;;;4.10;;
6117;SDS011;3089;48.202;11.510;2023-05-06T07:31:19;7.37;;;4.33;;
6117;SDS011;3089;48.202;11.510;2023-05-06T07:33:47;10.00;;;5.40;;
6117;SDS011;3089;48.202;11.510;2023-05-06T07:36:15;9.40;;;5.77;;
6117;SDS011;3089;48.202;11.510;2023-05-06T07:38:42;7.90;;;5.00;;
6117;SDS011;3089;48.202;11.510;2023-05-06T07:41:11;8.43;;;4.70;;
6117;SDS011;3089;48.202;11.510;2023-05-06T07:43:39;7.30;;;4.90;;
6117;SDS011;3089;48.202;11.510;2023-05-06T07:46:07;18.23;;;4.73;;
6117;SDS011;3089;48.202;11.510;2023-05-06T07:48:35;9.60;;;5.50;;
6117;SDS011;3089;48.202;11.510;2023-05-06T07:51:03;9.50;;;5.00;;
6117;SDS011;3089;48.202;11.510;2023-05-06T07:53:31;8.53;;;5.30;;
6117;SDS011;3089;48.202;11.510;2023-05-06T07:55:59;9.40;;;5.30;;
6117;SDS011;3089;48.202;11.510;2023-05-06T07:58:30;8.67;;;4.83;;
6117;SDS011;3089;48.202;11.510;2023-05-06T08:00:58;9.90;;;4.67;;
6117;SDS011;3089;48.202;11.510;2023-05-06T08:03:26;6.57;;;4.33;;
6117;SDS011;3089;48.202;11.510;2023-05-06T08:05:54;8.60;;;4.73;;
6117;SDS011;3089;48.202;11.510;2023-05-06T08:08:22;7.70;;;4.67;;
6117;SDS011;3089;48.202;11.510;2023-05-06T08:10:52;11.57;;;4.40;;
6117;SDS011;3089;48.202;11.510;2023-05-06T08:13:20;9.53;;;4.70;;
6117;SDS011;3089;48.202;11.510;2023-05-06T08:15:50;7.57;;;4.73;;
6117;SDS011;3089;48.202;11.510;2023-05-06T08:18:18;7.50;;;4.53;;
6117;SDS011;3089;48.202;11.510;2023-05-06T08:20:48;9.60;;;4.43;;
6117;SDS011;3089;48.202;11.510;2023-05-06T08:23:16;8.40;;;4.73;;
6117;SDS011;3089;48.202;11.510;2023-05-06T08:25:44;6.83;;;3.87;;
6117;SDS011;3089;48.202;11.510;2023-05-06T08:28:12;7.40;;;4.53;;
6117;SDS011;3089;48.202;11.510;2023-05-06T08:30:40;7.40;;;4.70;;
6117;SDS011;3089;48.202;11.510;2023-05-06T08:33:09;10.63;;;4.20;;
6117;SDS011;3089;48.202;11.510;2023-05-06T08:35:36;6.30;;;3.80;;
6117;SDS011;3089;48.202;11.510;2023-05-06T08:38:04;8.10;;;3.90;;
6117;SDS011;3089;48.202;11.510;2023-05-06T08:40:32;9.33;;;4.37;;
6117;SDS011;3089;48.202;11.510;2023-05-06T08:43:01;7.37;;;4.57;;
6117;SDS011;3089;48.202;11.510;2023-05-06T08:45:31;6.27;;;3.80;;
6117;SDS011;3089;48.202;11.510;2023-05-06T08:47:59;5.37;;;3.50;;
6117;SDS011;3089;48.202;11.510;2023-05-06T08:50:28;6.90;;;4.20;;
6117;SDS011;3089;48.202;11.510;2023-05-06T08:52:56;7.23;;;3.93;;
6117;SDS011;3089;48.202;11.510;2023-05-06T08:55:24;6.60;;;3.40;;
6117;SDS011;3089;48.202;11.510;2023-05-06T08:57:53;9.17;;;3.70;;
6117;SDS011;3089;48.202;11.510;2023-05-06T09:00:23;6.40;;;3.53;;
6117;SDS011;3089;48.202;11.510;2023-05-06T09:02:51;6.33;;;2.90;;
6117;SDS011;3089;48.202;11.510;2023-05-06T09:05:19;11.43;;;2.73;;
6117;SDS011;3089;48.202;11.510;2023-05-06T09:07:48;5.67;;;3.20;;
6117;SDS011;3089;48.202;11.510;2023-05-06T09:10:16;6.33;;;3.40;;
6117;SDS011;3089;48.202;11.510;2023-05-06T09:12:44;8.87;;;3.00;;
6117;SDS011;3089;48.202;11.510;2023-05-06T09:15:12;6.80;;;3.20;;
6117;SDS011;3089;48.202;11.510;2023-05-06T09:17:40;4.90;;;2.93;;
6117;SDS011;3089;48.202;11.510;2023-05-06T09:20:10;5.40;;;3.13;;
6117;SDS011;3089;48.202;11.510;2023-05-06T09:22:38;6.43;;;3.00;;
6117;SDS011;3089;48.202;11.510;2023-05-06T09:25:08;7.47;;;3.43;;
6117;SDS011;3089;48.202;11.510;2023-05-06T09:27:37;7.90;;;3.20;;
6117;SDS011;3089;48.202;11.510;2023-05-06T09:30:06;5.03;;;3.10;;
6117;SDS011;3089;48.202;11.510;2023-05-06T09:32:36;5.67;;;3.30;;
6117;SDS011;3089;48.202;11.510;2023-05-06T09:35:06;5.90;;;3.20;;
6117;SDS011;3089;48.202;11.510;2023-05-06T09:37:35;5.40;;;3.20;;
6117;SDS011;3089;48.202;11.510;2023-05-06T09:40:05;6.43;;;3.50;;
6117;SDS011;3089;48.202;11.510;2023-05-06T09:42:36;7.83;;;4.13;;
6117;SDS011;3089;48.202;11.510;2023-05-06T09:45:04;7.40;;;3.50;;
6117;SDS011;3089;48.202;11.510;2023-05-06T09:47:35;7.63;;;3.93;;
6117;SDS011;3089;48.202;11.510;2023-05-06T09:50:07;6.43;;;3.67;;
6117;SDS011;3089;48.202;11.510;2023-05-06T09:52:36;8.13;;;3.50;;
6117;SDS011;3089;48.202;11.510;2023-05-06T09:55:04;5.43;;;2.60;;
6117;SDS011;3089;48.202;11.510;2023-05-06T09:57:34;8.27;;;2.47;;
6117;SDS011;3089;48.202;11.510;2023-05-06T10:00:04;3.43;;;1.80;;
6117;SDS011;3089;48.202;11.510;2023-05-06T10:02:37;3.87;;;1.93;;
6117;SDS011;3089;48.202;11.510;2023-05-06T10:05:07;4.57;;;2.10;;
6117;SDS011;3089;48.202;11.510;2023-05-06T10:07:37;6.13;;;2.50;;
6117;SDS011;3089;48.202;11.510;2023-05-06T10:10:06;4.53;;;2.60;;
6117;SDS011;3089;48.202;11.510;2023-05-06T10:12:37;4.13;;;2.17;;
6117;SDS011;3089;48.202;11.510;2023-05-06T10:15:06;3.90;;;2.10;;
6117;SDS011;3089;48.202;11.510;2023-05-06T10:17:35;3.90;;;2.40;;
6117;SDS011;3089;48.202;11.510;2023-05-06T10:20:06;6.80;;;2.87;;
6117;SDS011;3089;48.202;11.510;2023-05-06T10:22:40;5.37;;;2.37;;
6117;SDS011;3089;48.202;11.510;2023-05-06T10:25:29;4.27;;;2.03;;
6117;SDS011;3089;48.202;11.510;2023-05-06T10:28:04;4.90;;;2.70;;
6117;SDS011;3089;48.202;11.510;2023-05-06T10:30:41;4.20;;;2.20;;
6117;SDS011;3089;48.202;11.510;2023-05-06T10:33:10;6.57;;;2.53;;
6117;SDS011;3089;48.202;11.510;2023-05-06T10:35:41;5.47;;;2.10;;
6117;SDS011;3089;48.202;11.510;2023-05-06T10:38:17;4.80;;;2.43;;
6117;SDS011;3089;48.202;11.510;2023-05-06T10:40:49;6.00;;;2.30;;
6117;SDS011;3089;48.202;11.510;2023-05-06T10:43:20;4.43;;;2.10;;
6117;SDS011;3089;48.202;11.510;2023-05-06T10:45:59;6.07;;;2.30;;
6117;SDS011;3089;48.202;11.510;2023-05-06T10:48:28;4.33;;;2.07;;
6117;SDS011;3089;48.202;11.510;2023-05-06T10:53:54;6.83;;;2.53;;
6117;SDS011;3089;48.202;11.510;2023-05-06T10:56:23;6.90;;;2.27;;
6117;SDS011;3089;48.202;11.510;2023-05-06T10:58:52;3.13;;;1.60;;
6117;SDS011;3089;48.202;11.510;2023-05-06T11:01:21;5.87;;;1.90;;
6117;SDS011;3089;48.202;11.510;2023-05-06T11:03:52;3.10;;;1.60;;
6117;SDS011;3089;48.202;11.510;2023-05-06T11:09:14;4.00;;;1.60;;
6117;SDS011;3089;48.202;11.510;2023-05-06T11:11:47;4.93;;;2.60;;
6117;SDS011;3089;48.202;11.510;2023-05-06T11:14:29;4.93;;;1.73;;
6117;SDS011;3089;48.202;11.510;2023-05-06T11:17:01;6.17;;;1.83;;
6117;SDS011;3089;48.202;11.510;2023-05-06T11:19:30;4.50;;;1.87;;
6117;SDS011;3089;48.202;11.510;2023-05-06T11:21:59;3.87;;;2.17;;
6117;SDS011;3089;48.202;11.510;2023-05-06T11:24:29;4.60;;;2.50;;
6117;SDS011;3089;48.202;11.510;2023-05-06T11:26:58;5.80;;;2.33;;
6117;SDS011;3089;48.202;11.510;2023-05-06T11:29:26;3.40;;;1.93;;
6117;SDS011;3089;48.202;11.510;2023-05-06T11:31:55;5.53;;;2.90;;
6117;SDS011;3089;48.202;11.510;2023-05-06T11:34:24;4.30;;;2.27;;
6117;SDS011;3089;48.202;11.510;2023-05-06T11:37:00;13.90;;;2.33;;
6117;SDS011;3089;48.202;11.510;2023-05-06T11:39:29;5.83;;;2.07;;
6117;SDS011;3089;48.202;11.510;2023-05-06T11:42:05;4.73;;;1.60;;
6117;SDS011;3089;48.202;11.510;2023-05-06T11:44:34;5.13;;;1.50;;
6117;SDS011;3089;48.202;11.510;2023-05-06T11:47:05;3.67;;;1.77;;
6117;SDS011;3089;48.202;11.510;2023-05-06T11:49:34;5.17;;;1.77;;
6117;SDS011;3089;48.202;11.510;2023-05-06T11:52:04;3.80;;;1.83;;
6117;SDS011;3089;48.202;11.510;2023-05-06T11:54:33;4.47;;;2.00;;
6117;SDS011;3089;48.202;11.510;2023-05-06T11:57:01;4.27;;;2.37;;
6117;SDS011;3089;48.202;11.510;2023-05-06T11:59:30;6.00;;;2.17;;
6117;SDS011;3089;48.202;11.510;2023-05-06T12:01:59;6.10;;;2.17;;
6117;SDS011;3089;48.202;11.510;2023-05-06T12:04:36;3.90;;;1.80;;
6117;SDS011;3089;48.202;11.510;2023-05-06T12:07:06;3.30;;;1.70;;
6117;SDS011;3089;48.202;11.510;2023-05-06T12:09:35;4.40;;;1.83;;
6117;SDS011;3089;48.202;11.510;2023-05-06T12:12:04;6.40;;;2.20;;
6117;SDS011;3089;48.202;11.510;2023-05-06T12:14:34;6.20;;;1.90;;
6117;SDS011;3089;48.202;11.510;2023-05-06T12:17:02;5.35;;;1.50;;
6117;SDS011;3089;48.202;11.510;2023-05-06T12:19:31;3.40;;;1.47;;
6117;SDS011;3089;48.202;11.510;2023-05-06T12:22:17;4.63;;;2.30;;
6117;SDS011;3089;48.202;11.510;2023-05-06T12:24:46;4.23;;;1.93;;
6117;SDS011;3089;48.202;11.510;2023-05-06T12:27:27;5.00;;;2.03;;
6117;SDS011;3089;48.202;11.510;2023-05-06T12:29:56;4.00;;;1.90;;
6117;SDS011;3089;48.202;11.510;2023-05-06T12:32:24;5.60;;;2.40;;
6117;SDS011;3089;48.202;11.510;2023-05-06T12:34:51;3.10;;;1.50;;
6117;SDS011;3089;48.202;11.510;2023-05-06T12:37:25;7.13;;;1.70;;
6117;SDS011;3089;48.202;11.510;2023-05-06T12:39:55;6.50;;;1.87;;
6117;SDS011;3089;48.202;11.510;2023-05-06T12:42:24;3.30;;;1.47;;
6117;SDS011;3089;48.202;11.510;2023-05-06T12:44:53;7.83;;;1.83;;
6117;SDS011;3089;48.202;11.510;2023-05-06T12:47:23;6.17;;;1.70;;
6117;SDS011;3089;48.202;11.510;2023-05-06T12:49:57;3.83;;;1.70;;
6117;SDS011;3089;48.202;11.510;2023-05-06T12:52:27;4.90;;;1.50;;
6117;SDS011;3089;48.202;11.510;2023-05-06T12:54:55;2.97;;;1.27;;
6117;SDS011;3089;48.202;11.510;2023-05-06T12:57:23;4.37;;;1.70;;
6117;SDS011;3089;48.202;11.510;2023-05-06T12:59:52;4.30;;;1.77;;
6117;SDS011;3089;48.202;11.510;2023-05-06T13:02:21;4.03;;;1.60;;
6117;SDS011;3089;48.202;11.510;2023-05-06T13:04:49;7.30;;;1.97;;
6117;SDS011;3089;48.202;11.510;2023-05-06T13:07:17;2.93;;;1.30;;
6117;SDS011;3089;48.202;11.510;2023-05-06T13:09:46;2.90;;;1.20;;
6117;SDS011;3089;48.202;11.510;2023-05-06T13:12:13;4.87;;;1.47;;
6117;SDS011;3089;48.202;11.510;2023-05-06T13:14:41;3.50;;;1.37;;
6117;SDS011;3089;48.202;11.510;2023-05-06T13:17:09;6.27;;;1.60;;
6117;SDS011;3089;48.202;11.510;2023-05-06T13:19:39;3.70;;;1.40;;
6117;SDS011;3089;48.202;11.510;2023-05-06T13:22:07;3.60;;;1.57;;
6117;SDS011;3089;48.202;11.510;2023-05-06T13:24:35;4.43;;;1.80;;
6117;SDS011;3089;48.202;11.510;2023-05-06T13:27:04;2.97;;;1.43;;
6117;SDS011;3089;48.202;11.510;2023-05-06T13:29:32;2.90;;;1.40;;
6117;SDS011;3089;48.202;11.510;2023-05-06T13:32:00;4.17;;;1.33;;
6117;SDS011;3089;48.202;11.510;2023-05-06T13:34:31;2.50;;;1.00;;
6117;SDS011;3089;48.202;11.510;2023-05-06T13:36:59;4.47;;;1.30;;
6117;SDS011;3089;48.202;11.510;2023-05-06T13:39:27;4.93;;;1.10;;
6117;SDS011;3089;48.202;11.510;2023-05-06T13:41:54;4.37;;;1.50;;
6117;SDS011;3089;48.202;11.510;2023-05-06T13:44:23;4.40;;;1.57;;
6117;SDS011;3089;48.202;11.510;2023-05-06T13:46:51;3.90;;;1.50;;
6117;SDS011;3089;48.202;11.510;2023-05-06T13:49:19;4.87;;;1.43;;
6117;SDS011;3089;48.202;11.510;2023-05-06T13:51:47;4.63;;;1.80;;
6117;SDS011;3089;48.202;11.510;2023-05-06T13:54:15;4.30;;;1.60;;
6117;SDS011;3089;48.202;11.510;2023-05-06T13:56:43;4.30;;;1.60;;
6117;SDS011;3089;48.202;11.510;2023-05-06T13:59:10;3.63;;;1.47;;
6117;SDS011;3089;48.202;11.510;2023-05-06T14:01:40;4.90;;;1.60;;
6117;SDS011;3089;48.202;11.510;2023-05-06T14:04:08;5.10;;;1.30;;
6117;SDS011;3089;48.202;11.510;2023-05-06T14:06:37;2.73;;;0.90;;
6117;SDS011;3089;48.202;11.510;2023-05-06T14:09:05;2.30;;;0.90;;
6117;SDS011;3089;48.202;11.510;2023-05-06T14:11:33;4.57;;;0.90;;
6117;SDS011;3089;48.202;11.510;2023-05-06T14:14:01;7.57;;;1.20;;
6117;SDS011;3089;48.202;11.510;2023-05-06T14:16:29;3.23;;;1.00;;
6117;SDS011;3089;48.202;11.510;2023-05-06T14:18:59;2.70;;;1.00;;
6117;SDS011;3089;48.202;11.510;2023-05-06T14:21:26;7.10;;;1.20;;
6117;SDS011;3089;48.202;11.510;2023-05-06T14:23:54;4.43;;;1.43;;
6117;SDS011;3089;48.202;11.510;2023-05-06T14:26:23;2.90;;;1.17;;
6117;SDS011;3089;48.202;11.510;2023-05-06T14:28:50;6.27;;;1.33;;
6117;SDS011;3089;48.202;11.510;2023-05-06T14:31:18;2.87;;;1.20;;
6117;SDS011;3089;48.202;11.510;2023-05-06T14:33:46;7.70;;;1.37;;
6117;SDS011;3089;48.202;11.510;2023-05-06T14:36:17;3.53;;;1.50;;
6117;SDS011;3089;48.202;11.510;2023-05-06T14:38:45;3.27;;;1.30;;
6117;SDS011;3089;48.202;11.510;2023-05-06T14:41:13;3.63;;;1.20;;
6117;SDS011;3089;48.202;11.510;2023-05-06T14:43:41;4.80;;;1.37;;
6117;SDS011;3089;48.202;11.510;2023-05-06T14:46:09;4.87;;;0.97;;
6117;SDS011;3089;48.202;11.510;2023-05-06T14:48:39;3.83;;;1.30;;
6117;SDS011;3089;48.202;11.510;2023-05-06T14:51:08;4.40;;;1.20;;
6117;SDS011;3089;48.202;11.510;2023-05-06T14:53:37;2.67;;;1.13;;
6117;SDS011;3089;48.202;11.510;2023-05-06T14:56:06;4.10;;;1.20;;
6117;SDS011;3089;48.202;11.510;2023-05-06T14:58:35;3.77;;;0.90;;
6117;SDS011;3089;48.202;11.510;2023-05-06T15:01:04;3.33;;;1.17;;
6117;SDS011;3089;48.202;11.510;2023-05-06T15:03:32;3.70;;;1.20;;
6117;SDS011;3089;48.202;11.510;2023-05-06T15:06:01;3.63;;;1.30;;
6117;SDS011;3089;48.202;11.510;2023-05-06T15:08:29;2.90;;;1.20;;
6117;SDS011;3089;48.202;11.510;2023-05-06T15:10:58;3.83;;;1.20;;
6117;SDS011;3089;48.202;11.510;2023-05-06T15:13:29;4.63;;;1.20;;
6117;SDS011;3089;48.202;11.510;2023-05-06T15:15:57;3.33;;;1.13;;
6117;SDS011;3089;48.202;11.510;2023-05-06T15:18:24;5.07;;;1.13;;